Time;durP1;ratioP1;P1;durP2;ratioP2;P2;SDS_P1;SDS_P2;PMS_P1;PMS_P2;Temp;Humidity;BMP_temperature;BMP_pressure;BME280_temperature;BME280_humidity;BME280_pressure;Samples;Min_cycle;Max_cycle;Signal;HPM_P1;HPM_P2
2023/10/02 00:03:00;;;;;;;8.77;5.10;;;13.10;1.00;;;;;;5032077;28;20205;-82
2023/10/02 00:05:08;;;;;;;11.33;5.80;;;13.10;16.70;;;;;;5030179;28;20701;-82
2023/10/02 00:07:42;;;;;;;9.03;5.17;;;13.00;1.00;;;;;;5032183;28;20174;-82
2023/10/02 00:10:08;;;;;;;7.77;4.60;;;13.00;1.00;;;;;;5033619;28;20654;-82
2023/10/02 00:12:34;;;;;;;9.87;5.07;;;13.00;1.00;;;;;;5031929;28;20178;-81
2023/10/02 00:15:11;;;;;;;8.97;4.97;;;13.10;1.00;;;;;;5033209;28;20694;-81
2023/10/02 00:17:37;;;;;;;8.60;5.43;;;12.90;1.00;;;;;;5033733;28;20178;-81
2023/10/02 00:20:13;;;;;;;7.53;4.90;;;12.80;99.90;;;;;;5032183;28;20223;-82
2023/10/02 00:22:41;;;;;;;9.60;4.90;;;12.90;99.90;;;;;;5033585;28;20244;-81
2023/10/02 00:25:09;;;;;;;12.07;5.80;;;12.80;36.10;;;;;;5033470;28;20269;-81
2023/10/02 00:27:36;;;;;;;8.47;5.00;;;12.80;99.90;;;;;;5033448;28;20248;-82
2023/10/02 00:30:07;;;;;;;9.50;5.07;;;12.60;99.90;;;;;;5033642;28;20170;-82
2023/10/02 00:32:34;;;;;;;9.90;5.20;;;12.70;99.90;;;;;;5033444;28;20174;-82
2023/10/02 00:35:03;;;;;;;8.30;5.50;;;12.70;99.90;;;;;;5031629;28;20190;-82
2023/10/02 00:37:51;;;;;;;9.80;5.23;;;12.70;99.90;;;;;;5033092;28;20182;-82
2023/10/02 00:40:22;;;;;;;10.13;5.27;;;12.60;99.90;;;;;;5031991;28;20216;-81
2023/10/02 00:42:55;;;;;;;8.70;5.10;;;12.40;99.90;;;;;;5032967;28;20198;-81
2023/10/02 00:45:29;;;;;;;7.93;4.50;;;12.40;99.90;;;;;;5038768;23;20221;-81
2023/10/02 00:48:24;;;;;;;7.13;4.30;;;12.40;99.90;;;;;;5033809;28;20171;-81
2023/10/02 00:50:49;;;;;;;7.80;4.80;;;12.30;99.90;;;;;;5033116;28;20178;-81
2023/10/02 00:53:15;;;;;;;11.87;5.53;;;12.40;99.90;;;;;;5015664;28;20197;-82
2023/10/02 00:55:44;;;;;;;8.13;5.17;;;12.30;99.90;;;;;;5015668;28;20204;-82
2023/10/02 00:58:15;;;;;;;9.43;5.00;;;12.30;99.90;;;;;;5018558;28;20260;-81
2023/10/02 01:00:47;;;;;;;7.83;4.97;;;12.30;99.90;;;;;;5037778;28;20225;-82
2023/10/02 01:03:16;;;;;;;8.27;5.20;;;12.40;99.90;;;;;;5019544;28;20646;-83
2023/10/02 01:05:50;;;;;;;8.57;5.23;;;12.40;99.90;;;;;;5019321;28;20198;-81
2023/10/02 01:08:24;;;;;;;8.33;4.77;;;12.40;99.90;;;;;;5037494;28;20197;-81
2023/10/02 01:10:54;;;;;;;9.43;5.60;;;12.40;99.90;;;;;;5019271;28;20177;-81
2023/10/02 01:13:19;;;;;;;8.43;5.23;;;12.50;99.90;;;;;;5019593;28;20261;-81
2023/10/02 01:15:46;;;;;;;8.53;4.97;;;12.50;99.90;;;;;;5036765;28;20308;-82
2023/10/02 01:18:21;;;;;;;8.93;5.30;;;12.50;99.90;;;;;;5019567;28;20185;-81
2023/10/02 01:20:53;;;;;;;9.23;5.50;;;12.50;99.90;;;;;;5018943;28;20178;-82
2023/10/02 01:23:23;;;;;;;9.43;5.33;;;12.50;99.90;;;;;;5036801;28;20674;-81
2023/10/02 01:25:57;;;;;;;8.07;4.90;;;12.50;99.90;;;;;;5018938;28;20217;-81
2023/10/02 01:28:25;;;;;;;9.73;5.10;;;12.40;99.90;;;;;;5037017;28;20158;-81
2023/10/02 01:30:55;;;;;;;9.23;5.00;;;12.40;99.90;;;;;;5018945;28;20655;-82
2023/10/02 01:33:22;;;;;;;7.87;5.27;;;12.40;99.90;;;;;;5018428;28;20281;-81
2023/10/02 01:35:57;;;;;;;9.53;5.27;;;12.40;99.90;;;;;;5019067;28;20249;-82
2023/10/02 01:38:29;;;;;;;9.73;5.70;;;12.40;99.90;;;;;;5036593;28;20689;-81
2023/10/02 01:41:02;;;;;;;7.93;5.23;;;12.30;99.90;;;;;;5036565;28;20221;-82
2023/10/02 01:43:29;;;;;;;8.20;4.87;;;12.20;99.90;;;;;;5036757;28;20594;-82
2023/10/02 01:45:57;;;;;;;9.43;5.40;;;12.10;99.90;;;;;;5018694;28;20293;-81
2023/10/02 01:48:44;;;;;;;9.20;5.23;;;12.10;99.90;;;;;;5036694;28;20185;-81
2023/10/02 01:51:20;;;;;;;10.00;4.93;;;12.00;99.90;;;;;;5018414;28;20181;-83
2023/10/02 01:53:49;;;;;;;8.73;4.90;;;12.00;99.90;;;;;;5036342;28;20174;-83
2023/10/02 01:56:16;;;;;;;8.43;5.20;;;12.10;99.90;;;;;;5036325;28;20207;-82
2023/10/02 01:58:42;;;;;;;9.03;4.73;;;12.00;99.90;;;;;;5035954;28;20170;-83
2023/10/02 02:01:09;;;;;;;9.83;5.40;;;12.00;99.90;;;;;;5018328;28;20182;-82
2023/10/02 02:03:51;;;;;;;10.60;5.40;;;12.00;99.90;;;;;;5017959;28;20202;-81
2023/10/02 02:06:22;;;;;;;10.00;5.00;;;12.00;99.90;;;;;;5018478;28;20190;-81
2023/10/02 02:08:52;;;;;;;6.57;4.40;;;11.80;99.90;;;;;;5017514;28;20170;-81
2023/10/02 02:11:23;;;;;;;7.77;4.33;;;11.80;99.90;;;;;;5036212;28;20162;-82
2023/10/02 02:13:58;;;;;;;8.50;5.00;;;11.70;99.90;;;;;;5018542;28;20179;-83
2023/10/02 02:16:30;;;;;;;7.73;4.70;;;11.70;99.90;;;;;;5036155;28;20796;-81
2023/10/02 02:18:58;;;;;;;9.77;5.10;;;11.80;99.90;;;;;;5035852;28;20178;-81
2023/10/02 02:21:24;;;;;;;8.17;4.80;;;11.80;99.90;;;;;;5035837;28;20175;-81
2023/10/02 02:24:11;;;;;;;7.87;4.63;;;11.80;99.90;;;;;;5036026;28;20175;-81
2023/10/02 02:26:39;;;;;;;8.47;4.60;;;11.80;99.90;;;;;;5035674;28;20252;-82
2023/10/02 02:29:16;;;;;;;7.50;4.67;;;11.80;99.90;;;;;;5035680;28;20173;-81
2023/10/02 02:31:42;;;;;;;9.10;4.67;;;11.80;99.90;;;;;;5036118;28;20166;-82
2023/10/02 02:34:16;;;;;;;9.10;4.77;;;11.80;99.90;;;;;;5017596;28;20177;-81
2023/10/02 02:36:46;;;;;;;9.57;5.00;;;11.80;99.90;;;;;;5035575;28;20238;-82
2023/10/02 02:39:16;;;;;;;8.63;4.60;;;11.80;99.90;;;;;;5017722;28;20175;-81
2023/10/02 02:41:43;;;;;;;10.17;5.00;;;11.70;99.90;;;;;;5035327;28;20166;-81
2023/10/02 02:44:29;;;;;;;9.73;5.33;;;11.70;99.90;;;;;;5018042;28;20174;-81
2023/10/02 02:46:55;;;;;;;7.40;4.67;;;11.70;99.90;;;;;;5035258;28;20320;-82
2023/10/02 02:49:23;;;;;;;7.17;4.60;;;11.70;99.90;;;;;;5017792;28;20233;-81
2023/10/02 02:51:49;;;;;;;9.40;5.57;;;11.60;99.90;;;;;;5017136;28;20265;-82
2023/10/02 02:54:15;;;;;;;9.53;5.47;;;11.60;99.90;;;;;;5035199;28;20209;-81
2023/10/02 02:56:41;;;;;;;9.83;5.53;;;11.60;99.90;;;;;;5035045;28;20202;-81
2023/10/02 02:59:08;;;;;;;8.77;5.13;;;11.50;99.90;;;;;;5035005;28;20182;-82
2023/10/02 03:01:34;;;;;;;8.97;5.33;;;11.40;99.90;;;;;;5034825;28;20673;-81
2023/10/02 03:04:11;;;;;;;10.20;5.43;;;11.40;99.90;;;;;;5034928;28;20170;-82
2023/10/02 03:06:37;;;;;;;10.43;5.37;;;11.50;99.90;;;;;;5034853;28;20248;-82
2023/10/02 03:09:05;;;;;;;10.33;5.30;;;11.60;99.90;;;;;;5034994;28;20174;-81
2023/10/02 03:11:32;;;;;;;11.23;5.60;;;11.70;99.90;;;;;;5034931;28;20305;-81
2023/10/02 03:14:13;;;;;;;9.63;5.50;;;11.80;99.90;;;;;;5035144;28;20654;-81
2023/10/02 03:16:43;;;;;;;8.20;5.07;;;11.80;99.90;;;;;;5016674;28;20198;-81
2023/10/02 03:19:08;;;;;;;9.20;4.83;;;11.80;99.90;;;;;;5016548;28;20178;-82
2023/10/02 03:21:38;;;;;;;8.63;4.90;;;11.70;99.90;;;;;;5016623;28;20174;-81
2023/10/02 03:24:04;;;;;;;8.23;4.70;;;11.60;99.90;;;;;;5034762;28;20190;-81
2023/10/02 03:29:03;;;;;;;8.60;5.00;;;11.40;99.90;;;;;;5034913;28;20170;-81
2023/10/02 03:31:51;;;;;;;10.57;5.00;;;11.30;99.90;;;;;;5016669;28;20241;-83
2023/10/02 03:34:28;;;;;;;8.03;4.80;;;11.20;99.90;;;;;;5034611;28;20182;-82
2023/10/02 03:42:25;;;;;;;8.87;5.60;;;11.40;99.90;;;;;;5034355;28;20209;-82
2023/10/02 03:44:56;;;;;;;10.83;5.77;;;11.30;99.90;;;;;;5034022;28;20174;-81
2023/10/02 03:47:23;;;;;;;9.60;5.30;;;11.30;99.90;;;;;;5033969;28;20185;-81
2023/10/02 03:49:50;;;;;;;10.33;5.07;;;11.20;99.90;;;;;;5016183;28;20209;-81
2023/10/02 03:52:17;;;;;;;8.33;4.87;;;11.20;99.90;;;;;;5016182;28;20208;-81
2023/10/02 03:54:46;;;;;;;8.63;4.77;;;11.10;99.90;;;;;;5016414;28;20189;-82
2023/10/02 03:57:37;;;;;;;8.97;5.10;;;11.00;99.90;;;;;;5015914;28;20288;-81
2023/10/02 04:00:12;;;;;;;8.43;5.07;;;11.00;99.90;;;;;;5033782;28;20205;-81
2023/10/02 04:02:39;;;;;;;9.80;5.00;;;10.90;99.90;;;;;;5015854;28;20690;-81
2023/10/02 04:05:05;;;;;;;9.17;5.33;;;10.90;99.90;;;;;;5033600;28;20643;-81
2023/10/02 04:07:31;;;;;;;9.53;4.87;;;10.90;99.90;;;;;;5033868;28;20169;-82
2023/10/02 04:09:57;;;;;;;9.27;5.20;;;11.00;99.90;;;;;;5033725;28;20182;-82
2023/10/02 04:12:23;;;;;;;9.07;5.10;;;11.00;99.90;;;;;;5033768;28;20174;-83
2023/10/02 04:14:49;;;;;;;8.27;4.67;;;11.00;99.90;;;;;;5016001;28;20182;-81
2023/10/02 04:19:51;;;;;;;12.60;4.93;;;10.90;99.90;;;;;;5033947;28;20289;-81
2023/10/02 04:22:22;;;;;;;8.50;4.57;;;10.90;99.90;;;;;;5015811;28;20201;-81
2023/10/02 04:24:51;;;;;;;7.23;4.37;;;10.80;99.90;;;;;;5033576;28;20182;-81
2023/10/02 04:32:39;;;;;;;10.13;4.80;;;11.00;99.90;;;;;;5032623;28;20174;-81
2023/10/02 04:35:44;;;;;;;8.20;4.70;;;10.90;99.90;;;;;;5033521;28;20196;-81
2023/10/02 04:37:58;;;;;;;9.40;5.10;;;11.00;99.90;;;;;;5033258;28;20178;-82
2023/10/02 04:40:37;;;;;;;9.93;5.17;;;11.10;99.90;;;;;;5033580;28;20188;-81
2023/10/02 04:43:25;;;;;;;9.57;5.10;;;11.10;99.90;;;;;;5015787;28;20201;-81
2023/10/02 04:46:08;;;;;;;8.93;4.90;;;11.10;99.90;;;;;;5033195;28;20626;-83
2023/10/02 04:48:42;;;;;;;10.43;5.37;;;11.10;99.90;;;;;;5015238;28;20174;-81
2023/10/02 04:51:09;;;;;;;9.47;5.33;;;11.00;99.90;;;;;;5033304;28;20162;-81
2023/10/02 04:53:36;;;;;;;11.97;5.67;;;10.80;99.90;;;;;;5033475;28;20177;-82
2023/10/02 04:56:21;;;;;;;9.13;4.77;;;10.80;99.90;;;;;;5015652;28;20199;-81
2023/10/02 04:58:49;;;;;;;8.13;5.27;;;10.90;99.90;;;;;;5033191;28;20237;-82
2023/10/02 05:01:41;;;;;;;10.00;5.30;;;10.80;99.90;;;;;;5033208;28;20187;-82
2023/10/02 05:04:08;;;;;;;9.33;5.10;;;10.80;99.90;;;;;;5015673;28;20184;-85
2023/10/02 05:06:52;;;;;;;8.23;4.90;;;10.70;99.90;;;;;;5034035;28;20557;-84
2023/10/02 05:09:20;;;;;;;9.47;4.83;;;10.70;99.90;;;;;;5033728;28;20173;-84
2023/10/02 05:11:57;;;;;;;8.57;5.07;;;10.70;99.90;;;;;;5015770;28;20195;-85
2023/10/02 05:14:28;;;;;;;9.33;4.87;;;10.80;99.90;;;;;;5033341;28;20162;-84
2023/10/02 05:20:07;;;;;;;10.03;5.23;;;10.90;99.90;;;;;;5033696;28;20629;-82
2023/10/02 05:22:36;;;;;;;9.43;5.13;;;10.90;99.90;;;;;;5032962;28;20694;-83
2023/10/02 05:25:07;;;;;;;9.87;5.30;;;10.90;99.90;;;;;;5033557;28;20170;-85
2023/10/02 05:27:36;;;;;;;9.73;4.87;;;10.80;99.90;;;;;;5033408;28;20173;-84
2023/10/02 05:30:13;;;;;;;9.77;5.03;;;10.80;99.90;;;;;;5032950;28;20297;-81
2023/10/02 05:32:40;;;;;;;8.97;4.80;;;10.80;99.90;;;;;;5015945;28;20190;-83
2023/10/02 05:37:51;;;;;;;8.87;5.10;;;10.80;99.90;;;;;;5034995;28;20180;-86
2023/10/02 05:45:47;;;;;;;8.70;4.87;;;10.90;99.90;;;;;;5035564;28;20237;-85
2023/10/02 05:48:27;;;;;;;8.70;5.00;;;10.90;99.90;;;;;;5036628;28;20164;-86
2023/10/02 05:50:57;;;;;;;8.00;4.80;;;11.00;99.90;;;;;;5035736;28;20178;-84
2023/10/02 05:53:34;;;;;;;9.30;5.30;;;11.00;99.90;;;;;;5034062;28;20561;-82
2023/10/02 05:58:36;;;;;;;8.60;4.57;;;10.90;99.90;;;;;;5036104;28;20196;-83
2023/10/02 06:01:06;;;;;;;6.60;4.30;;;10.90;99.90;;;;;;5034418;28;20547;-83
2023/10/02 06:03:37;;;;;;;5.83;3.80;;;11.00;99.90;;;;;;5017849;28;20198;-81
2023/10/02 06:06:18;;;;;;;8.00;4.47;;;11.00;99.90;;;;;;5035632;28;20822;-82
2023/10/02 06:08:55;;;;;;;9.37;4.87;;;11.10;99.90;;;;;;5035486;28;20552;-82
2023/10/02 06:11:28;;;;;;;10.47;5.83;;;11.20;99.90;;;;;;5034136;28;20170;-82
2023/10/02 06:13:56;;;;;;;9.37;5.33;;;11.20;99.90;;;;;;5034272;28;20582;-82
2023/10/02 06:16:29;;;;;;;10.87;5.87;;;11.20;99.90;;;;;;5035378;28;20569;-82
2023/10/02 06:19:01;;;;;;;10.37;5.47;;;11.30;99.90;;;;;;5017870;28;20175;-83
2023/10/02 06:21:31;;;;;;;8.90;5.10;;;11.30;99.90;;;;;;5034615;28;20277;-83
2023/10/02 06:23:58;;;;;;;8.13;5.03;;;11.30;99.90;;;;;;5034006;28;20303;-82
2023/10/02 06:26:29;;;;;;;8.20;4.80;;;11.30;99.90;;;;;;5035586;28;20663;-83
2023/10/02 06:29:16;;;;;;;9.27;5.57;;;11.30;99.90;;;;;;5035457;28;20175;-82
2023/10/02 06:31:43;;;;;;;10.17;5.10;;;11.40;99.90;;;;;;5035145;28;20159;-83
2023/10/02 06:34:11;;;;;;;11.17;5.20;;;11.40;99.90;;;;;;5036001;28;20163;-85
2023/10/02 06:36:45;;;;;;;9.03;5.83;;;11.50;99.90;;;;;;5037513;28;20194;-85
2023/10/02 06:39:21;;;;;;;9.13;5.10;;;11.50;99.90;;;;;;5036485;28;20176;-85
2023/10/02 06:41:47;;;;;;;9.90;5.77;;;11.60;99.90;;;;;;5036623;28;20252;-85
2023/10/02 06:44:16;;;;;;;8.93;5.47;;;11.70;99.90;;;;;;5017844;28;20173;-82
2023/10/02 06:46:53;;;;;;;8.87;5.17;;;11.70;99.90;;;;;;5086048;23;20756;-82
2023/10/02 06:49:23;;;;;;;8.80;5.40;;;11.80;99.90;;;;;;5034888;28;20166;-82
2023/10/02 06:51:49;;;;;;;8.97;4.83;;;11.80;99.90;;;;;;5017454;28;20293;-84
2023/10/02 06:54:19;;;;;;;9.40;5.53;;;12.10;99.90;;;;;;5036105;28;20178;-83
2023/10/02 06:56:48;;;;;;;8.33;4.80;;;12.40;99.90;;;;;;5035384;28;20194;-83
2023/10/02 06:59:14;;;;;;;9.17;5.53;;;12.50;99.90;;;;;;5035904;28;20169;-83
2023/10/02 07:02:01;;;;;;;8.40;5.10;;;12.80;99.90;;;;;;5034950;28;20531;-83
2023/10/02 07:04:30;;;;;;;10.33;5.47;;;13.10;99.90;;;;;;5034727;28;20181;-83
2023/10/02 07:07:02;;;;;;;9.07;5.00;;;13.40;99.90;;;;;;5016830;28;20266;-83
2023/10/02 07:09:35;;;;;;;9.83;5.70;;;13.60;99.90;;;;;;5033951;28;20174;-82
2023/10/02 07:12:14;;;;;;;10.53;6.07;;;13.70;99.90;;;;;;5033894;28;20171;-84
2023/10/02 07:14:42;;;;;;;10.90;6.07;;;13.60;99.90;;;;;;5016482;28;20174;-83
2023/10/02 07:17:16;;;;;;;9.47;5.80;;;13.40;99.90;;;;;;5016473;28;20198;-83
2023/10/02 07:19:49;;;;;;;10.23;5.83;;;13.30;99.90;;;;;;5034166;28;20178;-83
2023/10/02 07:22:22;;;;;;;12.30;6.33;;;13.30;99.90;;;;;;5016197;28;20209;-83
2023/10/02 07:24:47;;;;;;;13.90;6.63;;;13.30;99.90;;;;;;5016182;28;20178;-82
2023/10/02 07:27:24;;;;;;;12.17;6.83;;;13.40;99.90;;;;;;5033962;28;20190;-84
2023/10/02 07:29:59;;;;;;;10.57;6.50;;;13.50;99.90;;;;;;5034297;28;20257;-83
2023/10/02 07:32:34;;;;;;;10.30;6.63;;;13.50;99.90;;;;;;5033677;28;20229;-82
2023/10/02 07:35:09;;;;;;;15.43;7.53;;;13.60;99.90;;;;;;5016651;28;20169;-84
2023/10/02 07:37:38;;;;;;;12.10;7.13;;;13.70;99.90;;;;;;5016241;28;20265;-83
2023/10/02 07:40:06;;;;;;;12.33;7.13;;;13.90;99.90;;;;;;5033970;28;20178;-83
2023/10/02 07:42:32;;;;;;;14.27;7.73;;;14.00;99.90;;;;;;4999689;28;20208;-84
2023/10/02 07:45:11;;;;;;;15.13;8.20;;;14.20;99.90;;;;;;5016319;28;20205;-83
2023/10/02 07:48:07;;;;;;;11.03;7.50;;;14.40;99.90;;;;;;5033538;28;20735;-82
2023/10/02 07:50:33;;;;;;;12.70;7.33;;;14.60;99.90;;;;;;5033382;28;20182;-83
2023/10/02 07:53:01;;;;;;;10.57;6.87;;;14.70;99.90;;;;;;5015553;28;20551;-82
2023/10/02 07:55:27;;;;;;;11.40;7.00;;;14.90;99.90;;;;;;5033701;28;20205;-82
2023/10/02 07:57:58;;;;;;;15.00;7.70;;;15.00;99.90;;;;;;5034358;28;20249;-83
2023/10/02 08:00:39;;;;;;;12.57;7.47;;;15.20;99.90;;;;;;5034140;28;20217;-83
2023/10/02 08:05:58;;;;;;;15.93;7.60;;;15.40;99.90;;;;;;5033543;28;20244;-83
2023/10/02 08:08:34;;;;;;;14.60;7.53;;;15.60;99.90;;;;;;5033227;28;20176;-82
2023/10/02 08:11:02;;;;;;;13.83;7.87;;;15.70;99.90;;;;;;5015953;28;20170;-83
2023/10/02 08:13:35;;;;;;;14.87;7.50;;;15.80;99.90;;;;;;5033559;28;20208;-83
2023/10/02 08:16:11;;;;;;;15.30;8.43;;;16.00;99.90;;;;;;5033802;28;20202;-82
2023/10/02 08:18:57;;;;;;;16.97;8.70;;;16.30;99.90;;;;;;5016048;28;20224;-82
2023/10/02 08:21:33;;;;;;;16.00;8.67;;;16.50;99.90;;;;;;5034677;28;20662;-82
2023/10/02 08:24:01;;;;;;;11.47;7.50;;;16.70;99.90;;;;;;5035221;28;20194;-83
2023/10/02 08:26:27;;;;;;;13.23;7.30;;;17.00;99.90;;;;;;5016992;28;20635;-83
2023/10/02 08:28:53;;;;;;;12.83;7.47;;;17.20;99.90;;;;;;5035712;28;20174;-83
2023/10/02 08:31:19;;;;;;;13.43;7.90;;;17.40;99.90;;;;;;5036315;28;20227;-83
2023/10/02 08:33:45;;;;;;;14.40;7.63;;;17.60;99.90;;;;;;5019356;28;20197;-83
2023/10/02 08:36:12;;;;;;;12.93;7.20;;;17.80;58.10;;;;;;5036623;28;20194;-84
2023/10/02 08:38:40;;;;;;;12.80;6.30;;;18.00;1.00;;;;;;5017871;28;20174;-83
2023/10/02 08:41:08;;;;;;;16.33;6.40;;;18.30;1.00;;;;;;5035636;28;20174;-83
2023/10/02 08:43:41;;;;;;;10.80;6.30;;;18.50;1.00;;;;;;5035355;28;20225;-83
2023/10/02 08:46:21;;;;;;;11.83;6.40;;;18.60;99.90;;;;;;5017757;28;20210;-82
2023/10/02 08:48:54;;;;;;;10.77;5.73;;;18.80;99.90;;;;;;5035859;28;20177;-82
2023/10/02 08:51:29;;;;;;;13.63;5.90;;;19.00;99.90;;;;;;5017469;28;20174;-83
2023/10/02 08:53:58;;;;;;;14.37;5.97;;;19.20;1.00;;;;;;5036007;28;20589;-83
2023/10/02 08:56:37;;;;;;;8.17;5.10;;;19.30;99.90;;;;;;5035545;28;20200;-84
2023/10/02 08:59:28;;;;;;;8.95;5.50;;;19.50;1.00;;;;;;5043414;28;20654;-83
2023/10/02 09:02:15;;;;;;;9.30;5.72;;;19.80;99.90;;;;;;5017759;28;20174;-83
2023/10/02 09:04:53;;;;;;;9.25;5.15;;;19.90;99.90;;;;;;5035420;28;20246;-82
2023/10/02 09:07:23;;;;;;;10.38;5.78;;;20.10;1.00;;;;;;5017191;28;20675;-83
2023/10/02 09:10:12;;;;;;;9.93;5.00;;;20.20;1.00;;;;;;5035919;28;20166;-83
2023/10/02 09:12:48;;;;;;;9.57;5.38;;;20.30;51.30;;;;;;5017970;28;20174;-83
2023/10/02 09:15:27;;;;;;;13.35;5.57;;;20.50;99.90;;;;;;5018513;28;20265;-83
2023/10/02 09:17:57;;;;;;;9.57;5.03;;;20.60;99.90;;;;;;5019525;28;20174;-83
2023/10/02 09:20:38;;;;;;;9.32;5.40;;;20.60;99.90;;;;;;5039133;28;20261;-84
2023/10/02 09:23:08;;;;;;;7.68;4.93;;;20.60;1.00;;;;;;5021674;28;20205;-83
2023/10/02 09:25:37;;;;;;;10.35;5.25;;;20.70;1.00;;;;;;5039727;28;20187;-83
2023/10/02 09:28:04;;;;;;;8.02;5.03;;;20.80;99.90;;;;;;5039567;28;20187;-83
2023/10/02 09:33:07;;;;;;;9.00;5.05;;;21.00;99.90;;;;;;5038793;28;20236;-84
2023/10/02 09:35:42;;;;;;;9.63;5.15;;;21.10;99.90;;;;;;5039847;28;20189;-84
2023/10/02 09:38:13;;;;;;;11.05;4.95;;;21.10;99.90;;;;;;5021846;28;20180;-84
2023/10/02 09:41:11;;;;;;;9.85;4.93;;;21.20;1.00;;;;;;5039566;28;20193;-80
2023/10/02 09:43:37;;;;;;;9.68;5.10;;;21.40;1.00;;;;;;5020063;28;20293;-84
2023/10/02 09:46:15;;;;;;;10.60;5.20;;;21.40;99.90;;;;;;5037851;28;20701;-83
2023/10/02 09:49:01;;;;;;;9.20;5.43;;;21.50;99.90;;;;;;5039442;28;20197;-86
2023/10/02 09:51:30;;;;;;;10.77;5.30;;;21.50;99.90;;;;;;5038809;28;20257;-87
2023/10/02 09:54:08;;;;;;;9.20;5.22;;;21.60;90.70;;;;;;5039457;28;20194;-84
2023/10/02 09:56:53;;;;;;;8.43;5.43;;;21.70;1.00;;;;;;5038700;28;20777;-86
2023/10/02 09:59:21;;;;;;;8.98;4.90;;;21.90;99.90;;;;;;5021013;28;20177;-82
2023/10/02 10:10:49;;;;;;;7.97;4.70;;;22.40;99.90;;;;;;5036891;28;20177;-85
2023/10/02 10:13:51;;;;;;;8.80;5.10;;;22.50;99.90;;;;;;5039308;28;20538;-82
2023/10/02 10:16:19;;;;;;;9.55;5.53;;;22.50;64.10;;;;;;5038434;28;20240;-85
2023/10/02 10:21:57;;;;;;;7.25;4.80;;;22.70;1.00;;;;;;5037939;28;20213;-84
2023/10/02 10:24:31;;;;;;;8.35;5.03;;;22.80;1.00;;;;;;5037390;28;20178;-85
2023/10/02 10:26:57;;;;;;;8.63;5.28;;;22.70;1.00;;;;;;5018963;28;20221;-83
2023/10/02 10:29:42;;;;;;;9.32;5.72;;;22.80;1.00;;;;;;5034794;28;20177;-86
2023/10/02 10:32:17;;;;;;;9.48;5.20;;;22.80;1.00;;;;;;5017500;28;20178;-86
2023/10/02 10:35:14;;;;;;;7.35;4.47;;;22.90;1.00;;;;;;5017749;28;20181;-90
2023/10/02 10:37:47;;;;;;;8.48;5.15;;;23.20;1.00;;;;;;5018069;28;20225;-85
2023/10/02 10:40:44;;;;;;;8.15;5.05;;;23.40;1.00;;;;;;5017552;28;20240;-88
2023/10/02 10:43:17;;;;;;;8.18;4.97;;;23.30;99.90;;;;;;5017918;28;20226;-83
2023/10/02 10:45:44;;;;;;;8.95;5.18;;;23.50;99.90;;;;;;5035946;28;20206;-86
2023/10/02 10:48:22;;;;;;;10.52;5.53;;;23.70;99.90;;;;;;5019341;28;20178;-84
2023/10/02 10:51:06;;;;;;;8.93;5.43;;;23.70;99.90;;;;;;5036390;28;20178;-82
2023/10/02 10:53:41;;;;;;;10.10;5.45;;;24.10;99.90;;;;;;5037003;28;20178;-82
2023/10/02 10:56:19;;;;;;;9.23;5.28;;;24.30;99.90;;;;;;5022077;28;20197;-81
2023/10/02 10:58:46;;;;;;;8.00;5.35;;;24.50;1.00;;;;;;5023954;28;20182;-83
2023/10/02 11:01:21;;;;;;;8.93;4.80;;;24.60;1.00;;;;;;5023372;28;20174;-81
2023/10/02 11:03:56;;;;;;;9.48;5.32;;;24.70;1.00;;;;;;5023905;28;20212;-82
2023/10/02 11:06:22;;;;;;;8.43;5.00;;;24.70;99.90;;;;;;5023391;28;20195;-82
2023/10/02 11:09:16;;;;;;;10.70;5.47;;;25.00;1.00;;;;;;5041637;28;20249;-82
2023/10/02 11:11:51;;;;;;;9.38;5.30;;;25.10;9.60;;;;;;5022531;28;20175;-83
2023/10/02 11:14:23;;;;;;;9.88;5.55;;;25.20;59.50;;;;;;5022508;28;20232;-82
2023/10/02 11:16:54;;;;;;;7.95;5.03;;;25.00;1.00;;;;;;5041834;28;20198;-82
2023/10/02 11:19:25;;;;;;;9.68;5.43;;;25.10;99.90;;;;;;5041141;28;20232;-81
2023/10/02 11:22:21;;;;;;;8.60;5.15;;;25.30;11.50;;;;;;5041415;28;20305;-81
2023/10/02 11:24:53;;;;;;;9.65;5.10;;;25.30;1.00;;;;;;5024246;28;20182;-81
2023/10/02 11:27:19;;;;;;;8.20;5.30;;;25.40;28.30;;;;;;5041616;28;20182;-82
2023/10/02 11:30:02;;;;;;;9.23;5.30;;;25.50;1.00;;;;;;5041651;28;20177;-82
2023/10/02 11:32:58;;;;;;;8.90;5.22;;;25.50;99.90;;;;;;5022015;28;20170;-83
2023/10/02 11:35:37;;;;;;;9.60;5.10;;;25.80;1.00;;;;;;5041045;28;20224;-83
2023/10/02 11:38:04;;;;;;;8.93;5.43;;;25.80;1.00;;;;;;5041251;28;20167;-81
2023/10/02 11:40:29;;;;;;;9.38;5.13;;;25.80;1.00;;;;;;5022163;28;20205;-81
2023/10/02 11:42:59;;;;;;;8.98;5.35;;;25.90;1.00;;;;;;5021412;28;20202;-82
2023/10/02 11:45:26;;;;;;;10.93;5.28;;;25.90;1.00;;;;;;5021717;28;20175;-81
2023/10/02 11:47:52;;;;;;;7.35;4.78;;;26.00;1.00;;;;;;5039220;28;20174;-81
2023/10/02 11:50:18;;;;;;;9.05;4.93;;;26.10;1.00;;;;;;5020326;28;20741;-82
2023/10/02 11:52:44;;;;;;;8.02;4.78;;;25.90;1.00;;;;;;5021386;28;20201;-82
2023/10/02 11:55:10;;;;;;;7.80;4.85;;;25.80;1.00;;;;;;5038504;28;20185;-82
2023/10/02 11:57:37;;;;;;;8.75;5.03;;;25.90;1.00;;;;;;5038370;28;20213;-82
2023/10/02 12:00:08;;;;;;;9.13;5.35;;;26.30;1.00;;;;;;5037596;28;20210;-82
2023/10/02 12:02:34;;;;;;;8.05;5.38;;;26.40;1.00;;;;;;5019739;28;20206;-82
2023/10/02 12:05:00;;;;;;;7.57;4.93;;;26.70;1.00;;;;;;5019708;28;20557;-82
2023/10/02 12:07:26;;;;;;;8.00;5.30;;;26.90;1.00;;;;;;5038429;28;20197;-82
2023/10/02 12:09:53;;;;;;;8.73;5.60;;;26.60;1.00;;;;;;5038566;28;20206;-82
2023/10/02 12:12:19;;;;;;;9.63;4.88;;;26.60;1.00;;;;;;5019790;28;20187;-82
2023/10/02 12:14:45;;;;;;;8.75;5.38;;;26.80;1.00;;;;;;5019749;28;20557;-82
2023/10/02 12:17:14;;;;;;;8.45;4.80;;;26.90;99.90;;;;;;5019480;28;20198;-82
2023/10/02 12:19:40;;;;;;;9.48;5.57;;;26.90;1.00;;;;;;5037317;28;20174;-82
2023/10/02 12:22:07;;;;;;;7.28;4.93;;;26.50;1.00;;;;;;5018946;28;20182;-82
2023/10/02 12:24:34;;;;;;;7.72;5.15;;;26.80;1.00;;;;;;5019809;28;20224;-82
2023/10/02 12:27:00;;;;;;;7.43;4.90;;;27.00;1.00;;;;;;5018673;28;20205;-82
2023/10/02 12:29:25;;;;;;;9.10;5.55;;;27.10;1.00;;;;;;5019875;28;20174;-83
2023/10/02 12:31:53;;;;;;;9.93;5.45;;;27.10;1.00;;;;;;5037487;28;20166;-82
2023/10/02 12:34:19;;;;;;;9.15;5.22;;;27.00;1.00;;;;;;5037247;28;20170;-82
2023/10/02 12:36:44;;;;;;;9.38;5.22;;;26.90;1.00;;;;;;5037640;28;20190;-82
2023/10/02 12:39:13;;;;;;;8.05;5.45;;;26.90;1.00;;;;;;5036592;28;20175;-82
2023/10/02 12:41:41;;;;;;;9.68;5.20;;;27.00;1.00;;;;;;5036818;28;20194;-82
2023/10/02 12:44:07;;;;;;;8.43;5.10;;;27.00;1.00;;;;;;5019221;28;20202;-82
2023/10/02 12:46:43;;;;;;;9.40;4.93;;;26.90;1.00;;;;;;5037549;28;20209;-82
2023/10/02 12:49:08;;;;;;;10.32;5.47;;;27.10;1.00;;;;;;5019078;28;20180;-83
2023/10/02 12:51:34;;;;;;;8.82;5.28;;;27.20;1.00;;;;;;5036748;28;20174;-83
2023/10/02 12:54:00;;;;;;;7.40;5.00;;;27.10;1.00;;;;;;5039404;28;20193;-82
2023/10/02 12:56:25;;;;;;;8.48;5.05;;;27.00;1.00;;;;;;5022738;28;20223;-82
2023/10/02 12:58:53;;;;;;;7.72;4.65;;;27.20;1.00;;;;;;5022583;28;20693;-81
2023/10/02 13:01:27;;;;;;;7.20;4.65;;;27.40;1.00;;;;;;5041071;28;20178;-79
2023/10/02 13:03:54;;;;;;;8.73;5.00;;;27.60;1.00;;;;;;5039858;28;20257;-80
2023/10/02 13:06:22;;;;;;;6.63;4.43;;;27.70;1.00;;;;;;5041081;28;20202;-80
2023/10/02 13:08:48;;;;;;;7.70;5.28;;;27.70;1.00;;;;;;5020176;28;20174;-80
2023/10/02 13:11:18;;;;;;;8.40;5.00;;;27.60;1.00;;;;;;5037746;28;20618;-80
2023/10/02 13:13:46;;;;;;;8.13;5.20;;;27.70;1.00;;;;;;5037556;28;20166;-80
2023/10/02 13:16:18;;;;;;;8.70;5.15;;;27.60;99.90;;;;;;5019130;28;20190;-81
2023/10/02 13:18:44;;;;;;;7.38;4.72;;;27.30;1.00;;;;;;5019765;28;20175;-80
2023/10/02 13:21:19;;;;;;;7.85;5.20;;;27.60;1.00;;;;;;5019365;28;20534;-81
2023/10/02 13:23:46;;;;;;;8.82;5.00;;;27.50;1.00;;;;;;5019400;28;20251;-81
2023/10/02 13:26:15;;;;;;;6.65;4.50;;;27.70;1.00;;;;;;5037938;28;20700;-81
2023/10/02 13:28:47;;;;;;;7.60;4.95;;;27.90;1.00;;;;;;5040882;28;20237;-81
2023/10/02 13:31:14;;;;;;;8.25;4.85;;;28.10;1.00;;;;;;5039901;28;20224;-83
2023/10/02 13:33:40;;;;;;;7.15;4.78;;;28.30;99.90;;;;;;5022147;28;20174;-81
2023/10/02 13:36:09;;;;;;;8.02;4.97;;;28.20;99.90;;;;;;5040759;28;20534;-81
2023/10/02 13:38:35;;;;;;;7.63;4.90;;;28.30;99.90;;;;;;5040136;28;20366;-82
2023/10/02 13:41:11;;;;;;;8.32;4.90;;;28.40;99.90;;;;;;5022519;28;20178;-81
2023/10/02 13:43:45;;;;;;;6.68;4.38;;;28.50;99.90;;;;;;5021986;28;20198;-82
2023/10/02 13:46:17;;;;;;;7.07;4.65;;;28.70;99.90;;;;;;5021876;28;20268;-81
2023/10/02 13:48:46;;;;;;;6.82;4.60;;;28.50;99.90;;;;;;5040454;28;20177;-81
2023/10/02 13:51:13;;;;;;;7.13;4.60;;;28.40;99.90;;;;;;5022567;28;20232;-82
2023/10/02 13:53:42;;;;;;;6.85;4.65;;;28.10;99.90;;;;;;5021850;28;20225;-82
2023/10/02 13:56:15;;;;;;;7.20;4.80;;;28.40;99.90;;;;;;5021554;28;20256;-82
2023/10/02 13:58:42;;;;;;;7.88;4.53;;;28.70;99.90;;;;;;5039993;28;20182;-81
2023/10/02 14:01:09;;;;;;;6.03;4.20;;;28.80;99.90;;;;;;5043457;28;20179;-82